createdAt,value
2023-03-21T00:00:35.218Z,6.90
2023-03-21T00:01:35.195Z,6.80
2023-03-21T00:02:35.246Z,7.00
2023-03-21T00:03:35.190Z,6.80
2023-03-21T00:04:48.428Z,6.70
2023-03-21T00:05:35.307Z,6.70
2023-03-21T00:06:35.224Z,6.60
2023-03-21T00:07:35.109Z,7.30
2023-03-21T00:08:35.116Z,6.80
2023-03-21T00:09:35.112Z,6.70
2023-03-21T00:10:42.520Z,6.50
2023-03-21T00:11:35.065Z,7.20
2023-03-21T00:12:35.041Z,6.60
2023-03-21T00:13:35.041Z,6.60
2023-03-21T00:14:35.047Z,6.90
2023-03-21T00:15:42.652Z,6.80
2023-03-21T00:16:36.176Z,7.10
2023-03-21T00:17:34.983Z,7.40
2023-03-21T00:18:34.987Z,6.70
2023-03-21T00:19:34.974Z,6.70
2023-03-21T00:20:34.949Z,6.90
2023-03-21T00:22:05.852Z,7.50
2023-03-21T00:22:34.933Z,6.70
2023-03-21T00:23:34.905Z,6.60
2023-03-21T00:24:34.900Z,6.60
2023-03-21T00:25:34.910Z,7.40
2023-03-21T00:26:34.872Z,7.60
2023-03-21T00:27:53.299Z,7.30
2023-03-21T00:28:34.841Z,6.80
2023-03-21T00:29:34.853Z,6.70
2023-03-21T00:30:34.832Z,7.00
2023-03-21T00:31:34.804Z,7.30
2023-03-21T00:32:39.784Z,7.20
2023-03-21T00:33:34.784Z,7.80
2023-03-21T00:34:43.454Z,7.00
2023-03-21T00:35:57.895Z,7.20
2023-03-21T00:36:34.826Z,7.00
2023-03-21T00:37:34.742Z,7.40
2023-03-21T00:38:35.179Z,6.80
2023-03-21T00:39:34.702Z,7.10
2023-03-21T00:40:40.418Z,7.00
2023-03-21T00:41:42.380Z,7.10
2023-03-21T00:42:34.672Z,7.70
2023-03-21T00:43:34.652Z,7.40
2023-03-21T00:44:34.635Z,7.20
2023-03-21T00:45:35.483Z,7.10
2023-03-21T00:46:45.150Z,7.00
2023-03-21T00:47:34.638Z,7.50
2023-03-21T00:48:34.650Z,7.10
2023-03-21T00:49:34.604Z,6.90
2023-03-21T00:50:34.608Z,7.40
2023-03-21T00:51:34.560Z,7.10
2023-03-21T00:52:40.792Z,7.90
2023-03-21T00:53:34.530Z,7.90
2023-03-21T00:54:34.518Z,7.00
2023-03-21T00:55:34.765Z,8.10
2023-03-21T00:56:34.498Z,7.30
2023-03-21T00:57:38.990Z,7.30
2023-03-21T00:58:34.463Z,7.40
2023-03-21T00:59:34.453Z,7.60
2023-03-21T01:00:34.479Z,7.70
2023-03-21T01:01:34.477Z,8.00
2023-03-21T01:02:34.413Z,7.50
2023-03-21T01:03:34.409Z,7.50
2023-03-21T01:04:34.455Z,7.40
2023-03-21T01:05:34.588Z,7.30
2023-03-21T01:06:34.374Z,7.20
2023-03-21T01:07:34.375Z,7.70
2023-03-21T01:08:48.525Z,7.30
2023-03-21T01:09:34.331Z,8.30
2023-03-21T01:10:34.322Z,8.40
2023-03-21T01:11:34.311Z,8.10
2023-03-21T01:12:34.296Z,7.80
2023-03-21T01:13:36.403Z,7.80
2023-03-21T01:14:34.289Z,7.70
2023-03-21T01:15:34.303Z,8.30
2023-03-21T01:16:34.371Z,8.40
2023-03-21T01:17:34.223Z,7.70
2023-03-21T01:18:34.202Z,8.10
2023-03-21T01:19:50.178Z,7.70
2023-03-21T01:20:34.193Z,8.40
2023-03-21T01:21:34.165Z,8.40
2023-03-21T01:22:34.198Z,7.80
2023-03-21T01:23:34.159Z,8.30
2023-03-21T01:24:37.663Z,7.40
2023-03-21T01:25:34.119Z,7.70
2023-03-21T01:26:34.126Z,7.50
2023-03-21T01:27:34.089Z,8.20
2023-03-21T01:28:34.065Z,8.00
2023-03-21T01:29:34.098Z,7.80
2023-03-21T01:30:41.616Z,7.40
2023-03-21T01:31:34.204Z,8.00
2023-03-21T01:32:34.032Z,7.80
2023-03-21T01:33:34.013Z,8.20
2023-03-21T01:34:34.028Z,8.10
2023-03-21T01:35:40.968Z,8.40
2023-03-21T01:36:34.035Z,7.90
2023-03-21T01:37:33.974Z,7.90
2023-03-21T01:38:33.967Z,8.00
2023-03-21T01:39:33.960Z,7.80
2023-03-21T01:40:33.926Z,7.90
2023-03-21T01:41:42.588Z,8.20
2023-03-21T01:42:33.901Z,7.60
2023-03-21T01:43:33.897Z,7.70
2023-03-21T01:44:33.898Z,7.90
2023-03-21T01:45:33.882Z,8.30
2023-03-21T01:46:44.064Z,8.30
2023-03-21T01:47:33.867Z,8.30
2023-03-21T01:48:33.821Z,8.20
2023-03-21T01:49:33.831Z,8.10
2023-03-21T01:50:33.849Z,8.40
2023-03-21T01:51:33.787Z,7.70
2023-03-21T01:52:37.395Z,7.90
2023-03-21T01:53:33.761Z,8.00
2023-03-21T01:54:33.781Z,8.80
2023-03-21T01:55:33.736Z,7.80
2023-03-21T01:56:33.794Z,8.40
2023-03-21T01:57:42.342Z,8.70
2023-03-21T01:58:33.691Z,8.40
2023-03-21T01:59:33.699Z,8.70
2023-03-21T02:00:33.669Z,9.10
2023-03-21T02:01:33.711Z,8.10
2023-03-21T02:02:33.653Z,8.90
2023-03-21T02:03:36.332Z,8.80
2023-03-21T02:04:33.864Z,8.80
2023-03-21T02:05:33.600Z,8.80
2023-03-21T02:06:33.647Z,8.50
2023-03-21T02:07:33.580Z,9.40
2023-03-21T02:08:39.603Z,9.50
2023-03-21T02:09:33.668Z,8.80
2023-03-21T02:10:33.530Z,8.80
2023-03-21T02:11:33.580Z,8.80
2023-03-21T02:12:33.552Z,8.80
2023-03-21T02:13:33.503Z,8.60
2023-03-21T02:14:33.806Z,9.10
2023-03-21T02:15:33.468Z,9.30
2023-03-21T02:16:33.564Z,10.10
2023-03-21T02:17:33.448Z,9.20
2023-03-21T02:18:33.468Z,9.20
2023-03-21T02:19:41.549Z,9.20
2023-03-21T02:20:33.439Z,9.10
2023-03-21T02:21:33.430Z,9.00
2023-03-21T02:22:33.396Z,9.10
2023-03-21T02:23:33.387Z,8.80
2023-03-21T02:24:33.403Z,9.00
2023-03-21T02:25:33.348Z,9.10
2023-03-21T02:26:41.985Z,9.00
2023-03-21T02:27:33.348Z,9.40
2023-03-21T02:28:33.312Z,9.10
2023-03-21T02:29:33.309Z,9.40
2023-03-21T02:30:49.027Z,9.20
2023-03-21T02:31:33.324Z,9.10
2023-03-21T02:32:37.848Z,9.80
2023-03-21T02:33:33.279Z,9.70
2023-03-21T02:34:33.239Z,9.10
2023-03-21T02:35:37.128Z,9.30
2023-03-21T02:36:33.260Z,9.60
2023-03-21T02:37:38.362Z,9.30
2023-03-21T02:38:33.195Z,9.50
2023-03-21T02:39:33.191Z,9.10
2023-03-21T02:40:33.164Z,10.00
2023-03-21T02:41:40.212Z,9.80
2023-03-21T02:42:33.142Z,9.80
2023-03-21T02:43:33.117Z,9.50
2023-03-21T02:44:33.127Z,9.50
2023-03-21T02:45:33.112Z,10.10
2023-03-21T02:46:41.708Z,10.10
2023-03-21T02:47:33.080Z,9.60
2023-03-21T02:48:44.424Z,9.30
2023-03-21T02:49:33.088Z,9.70
2023-03-21T02:50:33.033Z,9.90
2023-03-21T02:51:33.045Z,9.70
2023-03-21T02:52:39.169Z,9.70
2023-03-21T02:53:33.102Z,9.80
2023-03-21T02:54:47.251Z,9.80
2023-03-21T02:55:32.988Z,9.60
2023-03-21T02:56:32.981Z,10.00
2023-03-21T02:57:42.223Z,9.70
2023-03-21T02:58:32.944Z,9.90
2023-03-21T02:59:35.813Z,10.10
2023-03-21T03:00:32.910Z,10.20
2023-03-21T03:01:32.948Z,10.70
2023-03-21T03:02:33.027Z,10.10
2023-03-21T03:03:34.871Z,10.20
2023-03-21T03:04:32.893Z,10.50
2023-03-21T03:05:32.838Z,9.90
2023-03-21T03:06:32.863Z,9.80
2023-03-21T03:07:32.809Z,9.80
2023-03-21T03:08:43.089Z,9.70
2023-03-21T03:09:32.793Z,10.00
2023-03-21T03:10:32.777Z,9.80
2023-03-21T03:11:32.781Z,10.50
2023-03-21T03:12:32.746Z,10.50
2023-03-21T03:13:32.730Z,10.20
2023-03-21T03:14:46.967Z,10.30
2023-03-21T03:15:32.816Z,10.50
2023-03-21T03:16:32.713Z,10.10
2023-03-21T03:17:32.680Z,9.90
2023-03-21T03:18:32.682Z,9.90
2023-03-21T03:19:36.694Z,10.00
2023-03-21T03:20:32.667Z,10.00
2023-03-21T03:21:32.693Z,10.00
2023-03-21T03:22:32.627Z,10.30
2023-03-21T03:23:32.609Z,11.20
2023-03-21T03:24:32.599Z,10.90
2023-03-21T03:25:42.030Z,10.00
2023-03-21T03:26:32.606Z,10.30
2023-03-21T03:27:32.583Z,10.30
2023-03-21T03:28:32.549Z,10.50
2023-03-21T03:29:32.527Z,10.00
2023-03-21T03:30:43.068Z,10.50
2023-03-21T03:31:32.563Z,10.70
2023-03-21T03:32:32.501Z,10.00
2023-03-21T03:33:32.479Z,10.60
2023-03-21T03:34:32.534Z,10.40
2023-03-21T03:35:32.518Z,10.40
2023-03-21T03:36:33.286Z,10.20
2023-03-21T03:37:32.430Z,10.10
2023-03-21T03:38:32.428Z,10.00
2023-03-21T03:39:32.423Z,10.30
2023-03-21T03:40:33.949Z,10.70
2023-03-21T03:41:56.267Z,10.30
2023-03-21T03:42:32.376Z,10.40
2023-03-21T03:43:32.372Z,10.40
2023-03-21T03:44:32.419Z,10.30
2023-03-21T03:45:32.334Z,9.90
2023-03-21T03:46:32.394Z,9.70
2023-03-21T03:47:36.317Z,9.80
2023-03-21T03:48:32.321Z,10.40
2023-03-21T03:49:32.307Z,10.30
2023-03-21T03:50:32.280Z,10.50
2023-03-21T03:51:32.275Z,9.60
2023-03-21T03:52:32.320Z,9.90
2023-03-21T03:53:32.212Z,10.10
2023-03-21T03:54:32.254Z,9.40
2023-03-21T03:55:32.197Z,9.80
2023-03-21T03:56:32.194Z,9.40
2023-03-21T03:57:32.184Z,9.30
2023-03-21T03:58:44.476Z,9.40
2023-03-21T03:59:32.176Z,9.50
2023-03-21T04:00:32.149Z,10.30
2023-03-21T04:01:32.197Z,9.20
2023-03-21T04:02:32.228Z,9.70
2023-03-21T04:03:46.071Z,9.20
2023-03-21T04:04:32.171Z,9.00
2023-03-21T04:05:32.066Z,9.20
2023-03-21T04:06:32.061Z,9.00
2023-03-21T04:07:32.099Z,9.50
2023-03-21T04:08:32.040Z,8.90
2023-03-21T04:09:43.673Z,9.50
2023-03-21T04:10:32.010Z,8.50
2023-03-21T04:11:31.989Z,9.00
2023-03-21T04:12:32.043Z,9.30
2023-03-21T04:13:31.973Z,9.50
2023-03-21T04:14:44.218Z,9.80
2023-03-21T04:15:31.961Z,10.10
2023-03-21T04:16:33.899Z,8.50
2023-03-21T04:17:31.948Z,9.40
2023-03-21T04:18:31.913Z,9.40
2023-03-21T04:19:31.949Z,9.30
2023-03-21T04:20:37.052Z,9.10
2023-03-21T04:21:31.907Z,8.70
2023-03-21T04:22:31.914Z,9.00
2023-03-21T04:23:31.895Z,9.20
2023-03-21T04:24:31.865Z,9.70
2023-03-21T04:25:34.140Z,9.00
2023-03-21T04:26:31.812Z,8.70
2023-03-21T04:27:31.812Z,9.00
2023-03-21T04:28:31.840Z,8.70
2023-03-21T04:29:31.813Z,8.70
2023-03-21T04:30:31.805Z,8.40
2023-03-21T04:31:31.759Z,9.30
2023-03-21T04:32:31.770Z,9.60
2023-03-21T04:33:31.757Z,9.30
2023-03-21T04:34:37.738Z,9.80
2023-03-21T04:35:32.471Z,9.00
2023-03-21T04:36:31.673Z,9.60
2023-03-21T04:37:31.675Z,8.90
2023-03-21T04:38:31.647Z,9.20
2023-03-21T04:39:31.628Z,9.20
2023-03-21T04:40:31.631Z,9.30
2023-03-21T04:41:31.600Z,9.40
2023-03-21T04:42:31.612Z,9.40
2023-03-21T04:43:31.591Z,9.20
2023-03-21T04:44:31.577Z,9.40
2023-03-21T04:45:31.586Z,9.50
2023-03-21T04:46:31.560Z,9.50
2023-03-21T04:47:31.525Z,9.80
2023-03-21T04:48:31.534Z,9.20
2023-03-21T04:49:31.516Z,9.70
2023-03-21T04:50:31.523Z,9.40
2023-03-21T04:51:31.497Z,10.00
2023-03-21T04:52:31.428Z,9.40
2023-03-21T04:53:31.463Z,9.30
2023-03-21T04:54:31.441Z,9.80
2023-03-21T04:55:31.421Z,9.00
2023-03-21T04:56:31.418Z,9.00
2023-03-21T04:57:31.424Z,9.60
2023-03-21T04:58:31.397Z,8.50
2023-03-21T04:59:31.327Z,9.50
2023-03-21T05:00:31.322Z,9.10
2023-03-21T05:01:31.563Z,9.10
2023-03-21T05:02:31.358Z,8.90
2023-03-21T05:03:32.290Z,9.40
2023-03-21T05:04:31.312Z,9.10
2023-03-21T05:05:31.246Z,8.80
2023-03-21T05:06:31.296Z,9.50
2023-03-21T05:07:31.290Z,9.10
2023-03-21T05:08:31.259Z,8.90
2023-03-21T05:09:31.209Z,9.00
2023-03-21T05:10:31.184Z,9.00
2023-03-21T05:11:31.154Z,9.30
2023-03-21T05:12:31.189Z,9.00
2023-03-21T05:13:31.134Z,9.20
2023-03-21T05:14:31.132Z,9.20
2023-03-21T05:15:31.120Z,8.90
2023-03-21T05:16:31.152Z,9.30
2023-03-21T05:17:31.118Z,9.10
2023-03-21T05:18:31.082Z,9.70
2023-03-21T05:19:31.060Z,8.70
2023-03-21T05:20:31.097Z,8.80
2023-03-21T05:21:31.065Z,9.00
2023-03-21T05:22:31.036Z,8.80
2023-03-21T05:23:31.004Z,9.40
2023-03-21T05:24:31.005Z,9.40
2023-03-21T05:25:31.014Z,8.50
2023-03-21T05:26:30.974Z,9.00
2023-03-21T05:27:30.961Z,9.00
2023-03-21T05:28:30.946Z,9.10
2023-03-21T05:29:30.957Z,9.20
2023-03-21T05:30:30.975Z,9.40
2023-03-21T05:31:30.929Z,9.20
2023-03-21T05:32:30.924Z,9.60
2023-03-21T05:33:30.885Z,9.00
2023-03-21T05:34:30.871Z,9.10
2023-03-21T05:35:30.886Z,9.50
2023-03-21T05:36:30.850Z,9.70
2023-03-21T05:37:30.837Z,9.90
2023-03-21T05:38:30.862Z,9.40
2023-03-21T05:39:30.847Z,10.40
2023-03-21T05:40:30.854Z,10.40
2023-03-21T05:41:30.778Z,10.10
2023-03-21T05:42:30.788Z,10.60
2023-03-21T05:43:30.966Z,9.70
2023-03-21T05:44:30.745Z,10.30
2023-03-21T05:45:30.741Z,9.80
2023-03-21T05:46:30.794Z,11.10
2023-03-21T05:47:30.706Z,10.10
2023-03-21T05:48:30.710Z,10.20
2023-03-21T05:49:30.681Z,9.80
2023-03-21T05:50:30.706Z,10.80
2023-03-21T05:51:30.663Z,9.60
2023-03-21T05:52:30.659Z,9.80
2023-03-21T05:53:30.650Z,9.80
2023-03-21T05:54:30.622Z,10.70
2023-03-21T05:55:30.603Z,11.80
2023-03-21T05:56:30.615Z,12.70
2023-03-21T05:57:30.581Z,13.40
2023-03-21T05:58:30.599Z,12.50
2023-03-21T05:59:30.548Z,12.60
2023-03-21T06:00:30.775Z,12.20
2023-03-21T06:01:30.534Z,11.30
2023-03-21T06:02:30.545Z,12.50
2023-03-21T06:03:30.606Z,12.70
2023-03-21T06:04:30.500Z,12.10
2023-03-21T06:05:30.476Z,12.00
2023-03-21T06:06:30.464Z,12.30
2023-03-21T06:07:30.453Z,11.60
2023-03-21T06:08:30.499Z,12.20
2023-03-21T06:09:30.424Z,12.00
2023-03-21T06:10:30.419Z,12.90
2023-03-21T06:11:30.398Z,12.20
2023-03-21T06:12:30.380Z,12.90
2023-03-21T06:13:30.660Z,12.50
2023-03-21T06:14:30.385Z,12.10
2023-03-21T06:15:30.817Z,11.80
2023-03-21T06:16:30.404Z,12.10
2023-03-21T06:17:30.384Z,12.40
2023-03-21T06:18:30.331Z,11.90
2023-03-21T06:19:30.295Z,11.70
2023-03-21T06:20:30.315Z,11.50
2023-03-21T06:21:30.355Z,11.50
2023-03-21T06:22:30.268Z,11.90
2023-03-21T06:23:30.248Z,11.90
2023-03-21T06:24:30.232Z,12.30
2023-03-21T06:25:30.249Z,12.20
2023-03-21T06:26:30.224Z,11.80
2023-03-21T06:27:30.201Z,12.20
2023-03-21T06:28:30.186Z,10.80
2023-03-21T06:29:30.174Z,12.10
2023-03-21T06:30:30.176Z,10.90
2023-03-21T06:31:30.165Z,12.40
2023-03-21T06:32:30.117Z,11.70
2023-03-21T06:33:30.135Z,11.80
2023-03-21T06:34:30.131Z,11.80
2023-03-21T06:35:30.133Z,11.70
2023-03-21T06:36:30.076Z,12.00
2023-03-21T06:37:30.107Z,11.10
2023-03-21T06:38:30.062Z,11.20
2023-03-21T06:39:30.051Z,11.90
2023-03-21T06:40:30.031Z,11.30
2023-03-21T06:41:30.012Z,11.70
2023-03-21T06:42:30.004Z,11.70
2023-03-21T06:43:30.020Z,11.50
2023-03-21T06:44:29.970Z,12.20
2023-03-21T06:45:29.987Z,11.20
2023-03-21T06:46:29.980Z,12.20
2023-03-21T06:47:29.956Z,12.90
2023-03-21T06:48:29.937Z,11.90
2023-03-21T06:49:29.910Z,11.90
2023-03-21T06:50:29.914Z,12.20
2023-03-21T06:51:29.883Z,12.30
2023-03-21T06:52:29.860Z,11.90
2023-03-21T06:53:29.915Z,11.40
2023-03-21T06:54:29.843Z,12.50
2023-03-21T06:55:29.867Z,12.60
2023-03-21T06:56:29.809Z,12.10
2023-03-21T06:57:29.815Z,11.60
2023-03-21T06:58:29.820Z,12.40
2023-03-21T06:59:29.804Z,12.60
2023-03-21T07:00:29.808Z,11.80
2023-03-21T07:01:29.751Z,12.00
2023-03-21T07:02:29.773Z,12.00
2023-03-21T07:03:29.751Z,11.30
2023-03-21T07:04:29.716Z,12.10
2023-03-21T07:05:29.735Z,12.10
2023-03-21T07:06:29.687Z,11.70
2023-03-21T07:07:29.691Z,12.00
2023-03-21T07:08:29.675Z,11.30
2023-03-21T07:09:29.656Z,12.30
2023-03-21T07:10:29.651Z,12.20
2023-03-21T07:11:29.644Z,12.90
2023-03-21T07:12:29.612Z,12.50
2023-03-21T07:13:29.623Z,13.80
2023-03-21T07:14:29.588Z,13.60
2023-03-21T07:15:29.614Z,13.70
2023-03-21T07:16:29.588Z,13.60
2023-03-21T07:17:29.554Z,15.10
2023-03-21T07:18:29.557Z,14.20
2023-03-21T07:19:29.526Z,15.30
2023-03-21T07:20:29.541Z,15.10
2023-03-21T07:21:29.505Z,16.10
2023-03-21T07:22:29.495Z,16.60
2023-03-21T07:23:29.499Z,17.00
2023-03-21T07:24:29.473Z,17.20
2023-03-21T07:25:29.546Z,18.30
2023-03-21T07:26:29.452Z,17.60
2023-03-21T07:27:29.435Z,18.60
2023-03-21T07:28:29.431Z,19.40
2023-03-21T07:29:29.403Z,19.80
2023-03-21T07:30:29.405Z,20.40
2023-03-21T07:31:29.411Z,21.20
2023-03-21T07:32:29.354Z,22.50
2023-03-21T07:33:29.351Z,22.70
2023-03-21T07:34:29.361Z,21.40
2023-03-21T07:35:29.371Z,21.40
2023-03-21T07:36:29.312Z,21.80
2023-03-21T07:37:29.296Z,22.20
2023-03-21T07:38:29.293Z,22.00
2023-03-21T07:39:29.268Z,22.00
2023-03-21T07:40:29.244Z,21.10
2023-03-21T07:41:29.246Z,21.80
2023-03-21T07:42:29.246Z,21.40
2023-03-21T07:43:29.252Z,21.30
2023-03-21T07:44:29.197Z,23.10
2023-03-21T07:45:29.230Z,23.20
2023-03-21T07:46:29.288Z,24.50
2023-03-21T07:47:29.162Z,22.40
2023-03-21T07:48:29.153Z,23.40
2023-03-21T07:49:29.136Z,23.10
2023-03-21T07:50:29.164Z,23.10
2023-03-21T07:51:29.113Z,22.60
2023-03-21T07:52:29.098Z,22.40
2023-03-21T07:53:29.152Z,23.30
2023-03-21T07:54:29.073Z,23.60
2023-03-21T07:55:29.082Z,22.50
2023-03-21T07:56:29.058Z,23.00
2023-03-21T07:57:29.073Z,22.60
2023-03-21T07:58:29.023Z,23.20
2023-03-21T07:59:29.013Z,22.70
2023-03-21T08:00:29.104Z,23.60
2023-03-21T08:01:28.989Z,24.20
2023-03-21T08:02:28.996Z,25.00
2023-03-21T08:03:28.977Z,24.40
2023-03-21T08:04:29.183Z,24.20
2023-03-21T08:05:28.936Z,23.00
2023-03-21T08:06:28.917Z,24.00
2023-03-21T08:07:28.909Z,24.60
2023-03-21T08:08:28.894Z,24.20
2023-03-21T08:09:30.728Z,25.00
2023-03-21T08:10:28.911Z,24.90
2023-03-21T08:11:28.857Z,26.60
2023-03-21T08:12:28.847Z,25.90
2023-03-21T08:13:28.824Z,26.90
2023-03-21T08:14:28.848Z,26.90
2023-03-21T08:15:28.838Z,27.90
2023-03-21T08:16:28.822Z,28.40
2023-03-21T08:17:28.781Z,28.50
2023-03-21T08:18:28.762Z,28.20
2023-03-21T08:19:28.748Z,27.50
2023-03-21T08:20:28.761Z,30.30
2023-03-21T08:21:28.728Z,30.00
2023-03-21T08:22:28.758Z,30.60
2023-03-21T08:23:28.702Z,29.00
2023-03-21T08:24:28.737Z,29.70
2023-03-21T08:25:28.728Z,29.80
2023-03-21T08:26:28.688Z,30.20
2023-03-21T08:27:28.658Z,30.90
2023-03-21T08:28:28.635Z,30.60
2023-03-21T08:29:28.646Z,32.10
2023-03-21T08:30:28.648Z,31.80
2023-03-21T08:31:28.608Z,30.70
2023-03-21T08:32:28.583Z,32.70
2023-03-21T08:33:28.566Z,30.50
2023-03-21T08:34:28.559Z,32.70
2023-03-21T08:35:28.592Z,32.80
2023-03-21T08:36:28.533Z,32.10
2023-03-21T08:37:28.528Z,33.40
2023-03-21T08:38:28.511Z,33.50
2023-03-21T08:39:28.618Z,32.80
2023-03-21T08:40:28.499Z,33.40
2023-03-21T08:41:28.511Z,33.70
2023-03-21T08:42:28.450Z,33.20
2023-03-21T08:43:28.448Z,33.10
2023-03-21T08:44:28.460Z,33.10
2023-03-21T08:45:28.426Z,34.20
2023-03-21T08:46:28.485Z,33.80
2023-03-21T08:47:28.404Z,33.40
2023-03-21T08:48:28.376Z,34.40
2023-03-21T08:49:28.394Z,34.30
2023-03-21T08:50:28.385Z,33.10
2023-03-21T08:51:28.344Z,33.60
2023-03-21T08:52:28.324Z,32.80
2023-03-21T08:53:28.317Z,31.60
2023-03-21T08:54:28.336Z,31.10
2023-03-21T08:55:28.295Z,30.60
2023-03-21T08:56:28.273Z,30.70
2023-03-21T08:57:28.275Z,31.20
2023-03-21T08:58:28.254Z,30.30
2023-03-21T08:59:28.291Z,31.20
2023-03-21T09:00:28.238Z,31.10
2023-03-21T09:01:28.244Z,29.60
2023-03-21T09:02:28.199Z,29.40
2023-03-21T09:03:28.200Z,30.00
2023-03-21T09:04:28.230Z,29.20
2023-03-21T09:05:28.782Z,28.10
2023-03-21T09:06:28.169Z,29.90
2023-03-21T09:07:28.132Z,29.80
2023-03-21T09:08:28.117Z,28.90
2023-03-21T09:09:28.122Z,29.70
2023-03-21T09:10:28.117Z,28.20
2023-03-21T09:11:28.084Z,27.80
2023-03-21T09:12:28.071Z,27.70
2023-03-21T09:13:28.062Z,27.40
2023-03-21T09:14:28.880Z,27.10
2023-03-21T09:15:28.027Z,27.60
2023-03-21T09:16:28.068Z,27.80
2023-03-21T09:17:28.024Z,28.80
2023-03-21T09:18:28.008Z,29.50
2023-03-21T09:19:27.999Z,28.90
2023-03-21T09:20:27.978Z,30.50
2023-03-21T09:21:27.969Z,32.80
2023-03-21T09:22:27.941Z,32.20
2023-03-21T09:23:27.961Z,32.10
2023-03-21T09:24:27.977Z,34.10
2023-03-21T09:25:27.949Z,33.80
2023-03-21T09:26:27.911Z,33.60
2023-03-21T09:27:27.896Z,34.20
2023-03-21T09:28:27.880Z,33.50
2023-03-21T09:29:27.870Z,33.00
2023-03-21T09:30:27.874Z,33.20
2023-03-21T09:31:27.906Z,33.60
2023-03-21T09:32:27.824Z,32.10
2023-03-21T09:33:27.813Z,32.60
2023-03-21T09:34:27.821Z,33.30
2023-03-21T09:35:27.805Z,32.30
2023-03-21T09:36:27.758Z,31.00
2023-03-21T09:37:27.777Z,30.50
2023-03-21T09:38:27.740Z,29.60
2023-03-21T09:39:27.741Z,29.20
2023-03-21T09:40:27.706Z,29.30
2023-03-21T09:41:27.708Z,29.60
2023-03-21T09:42:27.678Z,27.80
2023-03-21T09:43:27.684Z,26.40
2023-03-21T09:44:27.685Z,26.70
2023-03-21T09:45:27.878Z,26.20
2023-03-21T09:46:27.687Z,26.90
2023-03-21T09:47:27.635Z,26.20
2023-03-21T09:48:27.642Z,25.80
2023-03-21T09:49:27.622Z,25.90
2023-03-21T09:50:27.637Z,25.80
2023-03-21T09:51:27.573Z,26.20
2023-03-21T09:52:27.561Z,26.40
2023-03-21T09:53:27.572Z,26.60
2023-03-21T09:54:27.568Z,26.20
2023-03-21T09:55:27.527Z,26.00
2023-03-21T09:56:27.535Z,24.20
2023-03-21T09:57:27.519Z,24.80
2023-03-21T09:58:27.503Z,23.70
2023-03-21T09:59:27.508Z,24.70
2023-03-21T10:00:27.551Z,24.20
2023-03-21T10:01:27.451Z,24.20
2023-03-21T10:02:27.438Z,24.50
2023-03-21T10:03:27.434Z,24.80
2023-03-21T10:04:27.474Z,25.20
2023-03-21T10:05:27.433Z,28.00
2023-03-21T10:06:27.394Z,27.60
2023-03-21T10:07:27.377Z,27.60
2023-03-21T10:08:27.358Z,28.20
2023-03-21T10:09:27.366Z,28.20
2023-03-21T10:10:27.364Z,27.30
2023-03-21T10:11:27.324Z,28.70
2023-03-21T10:12:27.310Z,28.60
2023-03-21T10:13:27.303Z,29.20
2023-03-21T10:14:27.290Z,28.20
2023-03-21T10:15:27.290Z,28.20
2023-03-21T10:16:27.471Z,26.10
2023-03-21T10:17:27.263Z,25.40
2023-03-21T10:18:27.248Z,26.20
2023-03-21T10:19:27.252Z,27.90
2023-03-21T10:20:27.227Z,26.20
2023-03-21T10:21:56.657Z,26.30
2023-03-21T10:22:27.200Z,26.70
2023-03-21T10:23:27.183Z,25.70
2023-03-21T10:24:27.160Z,24.70
2023-03-21T10:25:27.193Z,25.00
2023-03-21T10:26:27.138Z,25.80
2023-03-21T10:27:27.130Z,25.00
2023-03-21T10:28:27.112Z,24.70
2023-03-21T10:29:27.096Z,25.30
2023-03-21T10:30:27.104Z,26.50
2023-03-21T10:31:27.137Z,23.50
2023-03-21T10:32:27.064Z,25.50
2023-03-21T10:33:27.053Z,24.40
2023-03-21T10:34:27.043Z,24.70
2023-03-21T10:35:27.053Z,24.20
2023-03-21T10:36:27.024Z,24.20
2023-03-21T10:37:26.996Z,23.30
2023-03-21T10:38:27.000Z,22.80
2023-03-21T10:39:26.975Z,22.50
2023-03-21T10:40:26.972Z,22.20
2023-03-21T10:41:26.961Z,22.50
2023-03-21T10:42:26.944Z,22.80
2023-03-21T10:43:26.926Z,22.40
2023-03-21T10:44:26.906Z,22.40
2023-03-21T10:45:26.922Z,22.30
2023-03-21T10:46:27.136Z,23.80
2023-03-21T10:47:27.127Z,24.10
2023-03-21T10:48:27.000Z,24.10
2023-03-21T10:49:26.847Z,24.30
2023-03-21T10:50:26.906Z,24.60
2023-03-21T10:51:26.829Z,23.60
2023-03-21T10:52:26.806Z,23.10
2023-03-21T10:53:26.806Z,21.40
2023-03-21T10:54:26.784Z,20.80
2023-03-21T10:55:26.779Z,20.50
2023-03-21T10:56:26.753Z,19.50
2023-03-21T10:57:26.816Z,20.50
2023-03-21T10:58:26.730Z,20.50
2023-03-21T10:59:26.711Z,20.40
2023-03-21T11:00:26.738Z,20.70
2023-03-21T11:01:26.776Z,20.10
2023-03-21T11:02:26.715Z,19.80
2023-03-21T11:03:26.655Z,20.10
2023-03-21T11:04:26.669Z,20.00
2023-03-21T11:05:26.681Z,19.30
2023-03-21T11:06:26.636Z,18.10
2023-03-21T11:07:26.609Z,18.60
2023-03-21T11:08:26.622Z,18.60
2023-03-21T11:09:26.578Z,19.60
2023-03-21T11:10:29.079Z,19.40
2023-03-21T11:11:26.566Z,18.20
2023-03-21T11:12:26.553Z,18.20
2023-03-21T11:13:26.551Z,18.90
2023-03-21T11:14:26.536Z,18.20
2023-03-21T11:15:26.523Z,18.50
2023-03-21T11:16:26.543Z,17.60
2023-03-21T11:17:26.481Z,17.10
2023-03-21T11:18:26.468Z,16.30
2023-03-21T11:19:26.472Z,16.10
2023-03-21T11:20:26.464Z,16.00
2023-03-21T11:21:26.474Z,16.40
2023-03-21T11:22:26.443Z,15.20
2023-03-21T11:23:26.410Z,15.30
2023-03-21T11:24:26.398Z,14.70
2023-03-21T11:25:26.415Z,12.70
2023-03-21T11:26:26.415Z,13.10
2023-03-21T11:27:26.375Z,13.40
2023-03-21T11:28:26.992Z,12.30
2023-03-21T11:29:26.339Z,12.80
2023-03-21T11:30:26.328Z,12.50
2023-03-21T11:31:26.327Z,11.70
2023-03-21T11:32:26.305Z,12.20
2023-03-21T11:33:26.280Z,10.90
2023-03-21T11:34:26.276Z,12.60
2023-03-21T11:35:26.340Z,11.00
2023-03-21T11:36:26.248Z,11.70
2023-03-21T11:37:26.294Z,11.50
2023-03-21T11:38:26.220Z,11.50
2023-03-21T11:39:26.198Z,11.40
2023-03-21T11:40:26.232Z,11.40
2023-03-21T11:41:26.199Z,11.10
2023-03-21T11:42:26.177Z,11.30
2023-03-21T11:43:26.152Z,11.80
2023-03-21T11:44:26.149Z,11.20
2023-03-21T11:45:26.143Z,11.40
2023-03-21T11:46:26.171Z,11.60
2023-03-21T11:47:26.098Z,11.60
2023-03-21T11:48:26.120Z,12.40
2023-03-21T11:49:26.075Z,11.70
2023-03-21T11:50:26.060Z,12.20
2023-03-21T11:51:26.070Z,12.30
2023-03-21T11:52:26.091Z,11.90
2023-03-21T11:53:26.019Z,11.80
2023-03-21T11:54:26.008Z,13.10
2023-03-21T11:55:26.011Z,12.60
2023-03-21T11:56:26.085Z,12.60
2023-03-21T11:57:26.003Z,12.50
2023-03-21T11:58:26.028Z,12.90
2023-03-21T11:59:25.952Z,12.20
2023-03-21T12:00:25.948Z,11.50
2023-03-21T12:01:25.992Z,11.70
2023-03-21T12:02:25.943Z,11.90
2023-03-21T12:03:27.342Z,11.30
2023-03-21T12:04:25.956Z,12.10
2023-03-21T12:05:25.871Z,11.50
2023-03-21T12:06:25.880Z,11.70
2023-03-21T12:07:25.857Z,11.50
2023-03-21T12:08:25.846Z,11.80
2023-03-21T12:09:25.816Z,12.40
2023-03-21T12:10:25.802Z,12.60
2023-03-21T12:11:25.818Z,11.20
2023-03-21T12:12:36.473Z,12.00
2023-03-21T12:13:25.775Z,12.20
2023-03-21T12:14:25.764Z,12.90
2023-03-21T12:15:25.766Z,12.40
2023-03-21T12:16:25.780Z,12.60
2023-03-21T12:17:25.714Z,12.20
2023-03-21T12:18:25.701Z,13.00
2023-03-21T12:19:25.694Z,13.50
2023-03-21T12:20:25.690Z,14.00
2023-03-21T12:21:25.699Z,14.20
2023-03-21T12:22:25.651Z,14.20
2023-03-21T12:23:25.728Z,14.50
2023-03-21T12:24:25.628Z,14.60
2023-03-21T12:25:25.642Z,14.90
2023-03-21T12:26:25.653Z,15.30
2023-03-21T12:27:25.595Z,15.60
2023-03-21T12:28:32.585Z,16.40
2023-03-21T12:29:25.571Z,16.00
2023-03-21T12:30:25.557Z,16.70
2023-03-21T12:31:25.660Z,17.30
2023-03-21T12:32:25.552Z,17.20
2023-03-21T12:33:25.522Z,16.20
2023-03-21T12:34:25.517Z,16.10
2023-03-21T12:35:25.518Z,17.80
2023-03-21T12:36:25.523Z,16.90
2023-03-21T12:37:25.485Z,17.40
2023-03-21T12:38:25.460Z,16.30
2023-03-21T12:39:25.442Z,19.10
2023-03-21T12:40:25.433Z,17.80
2023-03-21T12:41:25.446Z,17.30
2023-03-21T12:42:25.398Z,17.50
2023-03-21T12:43:25.387Z,17.50
2023-03-21T12:44:25.376Z,17.50
2023-03-21T12:45:26.108Z,18.70
2023-03-21T12:46:25.481Z,17.40
2023-03-21T12:47:25.350Z,17.00
2023-03-21T12:48:25.353Z,16.00
2023-03-21T12:49:25.323Z,14.20
2023-03-21T12:50:25.315Z,14.30
2023-03-21T12:51:25.319Z,13.70
2023-03-21T12:52:25.278Z,14.20
2023-03-21T12:53:25.263Z,13.90
2023-03-21T12:54:25.250Z,13.40
2023-03-21T12:55:25.269Z,14.10
2023-03-21T12:56:25.254Z,13.70
2023-03-21T12:57:25.212Z,14.50
2023-03-21T12:58:25.288Z,15.10
2023-03-21T12:59:25.188Z,14.40
2023-03-21T13:00:25.198Z,13.60
2023-03-21T13:01:25.255Z,13.40
2023-03-21T13:02:25.156Z,13.90